sensor_id;sensor_type;location;lat;lon;timestamp;P1;durP1;ratioP1;P2;durP2;ratioP2
73023;SDS011;72676;47.526;8.538;2024-03-06T00:02:20;6.47;;;2.63;;
73023;SDS011;72676;47.526;8.538;2024-03-06T00:04:46;2.57;;;1.50;;
73023;SDS011;72676;47.526;8.538;2024-03-06T00:07:13;8.40;;;1.70;;
73023;SDS011;72676;47.526;8.538;2024-03-06T00:09:39;3.03;;;1.80;;
73023;SDS011;72676;47.526;8.538;2024-03-06T00:12:06;4.53;;;1.40;;
73023;SDS011;72676;47.526;8.538;2024-03-06T00:14:32;2.37;;;1.13;;
73023;SDS011;72676;47.526;8.538;2024-03-06T00:16:59;3.13;;;1.50;;
73023;SDS011;72676;47.526;8.538;2024-03-06T00:19:26;3.03;;;1.80;;
73023;SDS011;72676;47.526;8.538;2024-03-06T00:21:52;3.47;;;1.57;;
73023;SDS011;72676;47.526;8.538;2024-03-06T00:24:19;2.90;;;1.50;;
73023;SDS011;72676;47.526;8.538;2024-03-06T00:26:45;3.40;;;1.60;;
73023;SDS011;72676;47.526;8.538;2024-03-06T00:29:13;4.20;;;1.50;;
73023;SDS011;72676;47.526;8.538;2024-03-06T00:31:43;3.50;;;1.70;;
73023;SDS011;72676;47.526;8.538;2024-03-06T00:34:11;4.83;;;2.27;;
73023;SDS011;72676;47.526;8.538;2024-03-06T00:36:39;3.50;;;1.60;;
73023;SDS011;72676;47.526;8.538;2024-03-06T00:39:06;2.80;;;1.20;;
73023;SDS011;72676;47.526;8.538;2024-03-06T00:41:34;4.73;;;1.37;;
73023;SDS011;72676;47.526;8.538;2024-03-06T00:44:01;3.23;;;1.50;;
73023;SDS011;72676;47.526;8.538;2024-03-06T00:46:29;3.23;;;1.60;;
73023;SDS011;72676;47.526;8.538;2024-03-06T00:48:55;5.97;;;2.30;;
73023;SDS011;72676;47.526;8.538;2024-03-06T00:51:22;3.63;;;1.93;;
73023;SDS011;72676;47.526;8.538;2024-03-06T00:54:06;3.67;;;1.90;;
73023;SDS011;72676;47.526;8.538;2024-03-06T00:56:32;6.67;;;2.00;;
73023;SDS011;72676;47.526;8.538;2024-03-06T00:58:59;8.70;;;2.50;;
73023;SDS011;72676;47.526;8.538;2024-03-06T01:01:25;4.87;;;2.00;;
73023;SDS011;72676;47.526;8.538;2024-03-06T01:03:53;6.63;;;2.27;;
73023;SDS011;72676;47.526;8.538;2024-03-06T01:06:20;3.17;;;1.70;;
73023;SDS011;72676;47.526;8.538;2024-03-06T01:08:47;4.10;;;2.30;;
73023;SDS011;72676;47.526;8.538;2024-03-06T01:11:13;5.07;;;2.77;;
73023;SDS011;72676;47.526;8.538;2024-03-06T01:13:40;4.80;;;2.50;;
73023;SDS011;72676;47.526;8.538;2024-03-06T01:16:07;7.97;;;2.83;;
73023;SDS011;72676;47.526;8.538;2024-03-06T01:18:34;4.30;;;2.20;;
73023;SDS011;72676;47.526;8.538;2024-03-06T01:21:00;5.80;;;2.50;;
73023;SDS011;72676;47.526;8.538;2024-03-06T01:23:27;5.30;;;2.27;;
73023;SDS011;72676;47.526;8.538;2024-03-06T01:25:53;3.90;;;2.20;;
73023;SDS011;72676;47.526;8.538;2024-03-06T01:28:20;4.10;;;1.93;;
73023;SDS011;72676;47.526;8.538;2024-03-06T01:30:46;3.50;;;1.60;;
73023;SDS011;72676;47.526;8.538;2024-03-06T01:33:13;3.40;;;1.77;;
73023;SDS011;72676;47.526;8.538;2024-03-06T01:35:39;4.40;;;2.03;;
73023;SDS011;72676;47.526;8.538;2024-03-06T01:38:06;3.73;;;1.90;;
73023;SDS011;72676;47.526;8.538;2024-03-06T01:40:33;3.83;;;1.67;;
73023;SDS011;72676;47.526;8.538;2024-03-06T01:42:59;3.57;;;1.40;;
73023;SDS011;72676;47.526;8.538;2024-03-06T01:45:27;4.03;;;1.83;;
73023;SDS011;72676;47.526;8.538;2024-03-06T01:47:53;4.77;;;1.90;;
73023;SDS011;72676;47.526;8.538;2024-03-06T01:50:20;4.10;;;1.83;;
73023;SDS011;72676;47.526;8.538;2024-03-06T01:52:46;4.30;;;1.50;;
73023;SDS011;72676;47.526;8.538;2024-03-06T01:55:16;3.83;;;1.90;;
73023;SDS011;72676;47.526;8.538;2024-03-06T01:57:44;4.10;;;1.90;;
73023;SDS011;72676;47.526;8.538;2024-03-06T02:00:11;5.10;;;2.07;;
73023;SDS011;72676;47.526;8.538;2024-03-06T02:02:41;4.43;;;1.83;;
73023;SDS011;72676;47.526;8.538;2024-03-06T02:05:08;3.83;;;1.90;;
73023;SDS011;72676;47.526;8.538;2024-03-06T02:07:36;3.40;;;1.53;;
73023;SDS011;72676;47.526;8.538;2024-03-06T02:10:06;3.53;;;1.53;;
73023;SDS011;72676;47.526;8.538;2024-03-06T02:12:36;3.93;;;1.90;;
73023;SDS011;72676;47.526;8.538;2024-03-06T02:15:03;4.60;;;1.93;;
73023;SDS011;72676;47.526;8.538;2024-03-06T02:17:30;5.73;;;2.00;;
73023;SDS011;72676;47.526;8.538;2024-03-06T02:19:57;3.80;;;1.70;;
73023;SDS011;72676;47.526;8.538;2024-03-06T02:22:26;3.77;;;1.90;;
73023;SDS011;72676;47.526;8.538;2024-03-06T02:24:52;5.17;;;2.03;;
73023;SDS011;72676;47.526;8.538;2024-03-06T02:27:19;4.23;;;2.07;;
73023;SDS011;72676;47.526;8.538;2024-03-06T02:29:45;3.57;;;1.77;;
73023;SDS011;72676;47.526;8.538;2024-03-06T02:32:12;4.07;;;1.70;;
73023;SDS011;72676;47.526;8.538;2024-03-06T02:34:40;3.70;;;1.50;;
73023;SDS011;72676;47.526;8.538;2024-03-06T02:37:07;3.60;;;1.30;;
73023;SDS011;72676;47.526;8.538;2024-03-06T02:39:33;3.57;;;1.70;;
73023;SDS011;72676;47.526;8.538;2024-03-06T02:42:00;3.40;;;1.33;;
73023;SDS011;72676;47.526;8.538;2024-03-06T02:44:27;4.27;;;1.90;;
73023;SDS011;72676;47.526;8.538;2024-03-06T02:46:54;3.83;;;1.70;;
73023;SDS011;72676;47.526;8.538;2024-03-06T02:49:20;3.90;;;1.87;;
73023;SDS011;72676;47.526;8.538;2024-03-06T02:51:47;5.20;;;2.10;;
73023;SDS011;72676;47.526;8.538;2024-03-06T02:54:13;3.43;;;1.60;;
73023;SDS011;72676;47.526;8.538;2024-03-06T02:56:40;3.10;;;1.40;;
73023;SDS011;72676;47.526;8.538;2024-03-06T02:59:07;4.90;;;2.30;;
73023;SDS011;72676;47.526;8.538;2024-03-06T03:01:33;4.73;;;1.90;;
73023;SDS011;72676;47.526;8.538;2024-03-06T03:04:00;3.87;;;1.77;;
73023;SDS011;72676;47.526;8.538;2024-03-06T03:06:26;4.50;;;2.10;;
73023;SDS011;72676;47.526;8.538;2024-03-06T03:08:53;4.60;;;2.10;;
73023;SDS011;72676;47.526;8.538;2024-03-06T03:11:20;4.43;;;1.60;;
73023;SDS011;72676;47.526;8.538;2024-03-06T03:13:46;3.80;;;1.80;;
73023;SDS011;72676;47.526;8.538;2024-03-06T03:16:16;4.70;;;2.40;;
73023;SDS011;72676;47.526;8.538;2024-03-06T03:18:44;4.80;;;2.50;;
73023;SDS011;72676;47.526;8.538;2024-03-06T03:21:11;5.00;;;2.03;;
73023;SDS011;72676;47.526;8.538;2024-03-06T03:23:39;4.30;;;2.20;;
73023;SDS011;72676;47.526;8.538;2024-03-06T03:26:06;4.37;;;2.20;;
73023;SDS011;72676;47.526;8.538;2024-03-06T03:28:39;3.60;;;1.73;;
73023;SDS011;72676;47.526;8.538;2024-03-06T03:31:06;4.50;;;2.00;;
73023;SDS011;72676;47.526;8.538;2024-03-06T03:33:35;3.73;;;2.10;;
73023;SDS011;72676;47.526;8.538;2024-03-06T03:36:05;4.87;;;2.20;;
73023;SDS011;72676;47.526;8.538;2024-03-06T03:38:36;4.90;;;2.43;;
73023;SDS011;72676;47.526;8.538;2024-03-06T03:41:09;4.43;;;2.10;;
73023;SDS011;72676;47.526;8.538;2024-03-06T03:43:39;4.03;;;1.90;;
73023;SDS011;72676;47.526;8.538;2024-03-06T03:46:06;4.50;;;2.17;;
73023;SDS011;72676;47.526;8.538;2024-03-06T03:48:33;4.00;;;2.00;;
73023;SDS011;72676;47.526;8.538;2024-03-06T03:51:03;5.50;;;2.30;;
73023;SDS011;72676;47.526;8.538;2024-03-06T03:53:31;5.13;;;2.00;;
73023;SDS011;72676;47.526;8.538;2024-03-06T03:55:57;4.40;;;1.80;;
73023;SDS011;72676;47.526;8.538;2024-03-06T03:58:24;4.87;;;2.60;;
73023;SDS011;72676;47.526;8.538;2024-03-06T04:00:50;4.37;;;1.87;;
73023;SDS011;72676;47.526;8.538;2024-03-06T04:03:21;4.30;;;2.40;;
73023;SDS011;72676;47.526;8.538;2024-03-06T04:05:48;4.40;;;2.20;;
73023;SDS011;72676;47.526;8.538;2024-03-06T04:08:15;4.60;;;2.23;;
73023;SDS011;72676;47.526;8.538;2024-03-06T04:10:42;4.70;;;2.10;;
73023;SDS011;72676;47.526;8.538;2024-03-06T04:13:11;4.30;;;2.20;;
73023;SDS011;72676;47.526;8.538;2024-03-06T04:15:38;4.93;;;2.13;;
73023;SDS011;72676;47.526;8.538;2024-03-06T04:18:05;4.73;;;2.40;;
73023;SDS011;72676;47.526;8.538;2024-03-06T04:20:32;4.90;;;2.70;;
73023;SDS011;72676;47.526;8.538;2024-03-06T04:22:58;4.13;;;2.00;;
73023;SDS011;72676;47.526;8.538;2024-03-06T04:25:25;4.80;;;2.27;;
73023;SDS011;72676;47.526;8.538;2024-03-06T04:27:51;4.87;;;2.40;;
73023;SDS011;72676;47.526;8.538;2024-03-06T04:30:18;5.53;;;2.67;;
73023;SDS011;72676;47.526;8.538;2024-03-06T04:32:45;5.37;;;2.70;;
73023;SDS011;72676;47.526;8.538;2024-03-06T04:35:11;4.20;;;2.27;;
73023;SDS011;72676;47.526;8.538;2024-03-06T04:37:38;4.03;;;2.13;;
73023;SDS011;72676;47.526;8.538;2024-03-06T04:40:05;4.90;;;2.40;;
73023;SDS011;72676;47.526;8.538;2024-03-06T04:42:34;4.97;;;2.40;;
73023;SDS011;72676;47.526;8.538;2024-03-06T04:45:11;5.33;;;2.73;;
73023;SDS011;72676;47.526;8.538;2024-03-06T04:47:41;5.10;;;2.53;;
73023;SDS011;72676;47.526;8.538;2024-03-06T04:50:08;4.67;;;2.17;;
73023;SDS011;72676;47.526;8.538;2024-03-06T04:52:40;5.20;;;2.50;;
73023;SDS011;72676;47.526;8.538;2024-03-06T04:55:07;4.73;;;2.30;;
73023;SDS011;72676;47.526;8.538;2024-03-06T04:57:36;5.67;;;2.30;;
73023;SDS011;72676;47.526;8.538;2024-03-06T05:00:04;5.70;;;2.70;;
73023;SDS011;72676;47.526;8.538;2024-03-06T05:02:34;4.93;;;2.30;;
73023;SDS011;72676;47.526;8.538;2024-03-06T05:05:20;5.43;;;2.70;;
73023;SDS011;72676;47.526;8.538;2024-03-06T05:08:04;4.90;;;2.60;;
73023;SDS011;72676;47.526;8.538;2024-03-06T05:10:49;5.47;;;3.20;;
73023;SDS011;72676;47.526;8.538;2024-03-06T05:13:33;5.37;;;2.50;;
73023;SDS011;72676;47.526;8.538;2024-03-06T05:16:17;5.63;;;2.50;;
73023;SDS011;72676;47.526;8.538;2024-03-06T05:19:01;5.43;;;2.80;;
73023;SDS011;72676;47.526;8.538;2024-03-06T05:21:45;4.80;;;2.50;;
73023;SDS011;72676;47.526;8.538;2024-03-06T05:24:29;7.53;;;3.13;;
73023;SDS011;72676;47.526;8.538;2024-03-06T05:27:13;5.27;;;2.50;;
73023;SDS011;72676;47.526;8.538;2024-03-06T05:30:01;5.50;;;2.73;;
73023;SDS011;72676;47.526;8.538;2024-03-06T05:32:45;8.37;;;3.67;;
73023;SDS011;72676;47.526;8.538;2024-03-06T05:35:30;10.10;;;3.70;;
73023;SDS011;72676;47.526;8.538;2024-03-06T05:38:14;7.93;;;3.50;;
73023;SDS011;72676;47.526;8.538;2024-03-06T05:40:58;7.40;;;3.60;;
73023;SDS011;72676;47.526;8.538;2024-03-06T05:43:42;9.10;;;4.07;;
73023;SDS011;72676;47.526;8.538;2024-03-06T05:46:26;8.10;;;3.97;;
73023;SDS011;72676;47.526;8.538;2024-03-06T05:49:10;9.47;;;4.27;;
73023;SDS011;72676;47.526;8.538;2024-03-06T05:51:54;10.47;;;5.27;;
73023;SDS011;72676;47.526;8.538;2024-03-06T05:54:39;7.90;;;4.57;;
73023;SDS011;72676;47.526;8.538;2024-03-06T05:57:23;8.13;;;4.20;;
73023;SDS011;72676;47.526;8.538;2024-03-06T06:00:07;8.40;;;4.40;;
73023;SDS011;72676;47.526;8.538;2024-03-06T06:02:37;9.67;;;4.57;;
73023;SDS011;72676;47.526;8.538;2024-03-06T06:05:04;10.63;;;4.20;;
73023;SDS011;72676;47.526;8.538;2024-03-06T06:07:48;9.53;;;4.60;;
73023;SDS011;72676;47.526;8.538;2024-03-06T06:10:16;7.93;;;3.80;;
73023;SDS011;72676;47.526;8.538;2024-03-06T06:12:46;8.87;;;3.90;;
73023;SDS011;72676;47.526;8.538;2024-03-06T06:15:13;7.57;;;3.70;;
73023;SDS011;72676;47.526;8.538;2024-03-06T06:17:39;8.80;;;4.17;;
73023;SDS011;72676;47.526;8.538;2024-03-06T06:20:09;6.93;;;3.57;;
73023;SDS011;72676;47.526;8.538;2024-03-06T06:22:41;8.40;;;3.73;;
73023;SDS011;72676;47.526;8.538;2024-03-06T06:25:08;7.33;;;3.50;;
73023;SDS011;72676;47.526;8.538;2024-03-06T06:27:36;8.30;;;4.47;;
73023;SDS011;72676;47.526;8.538;2024-03-06T06:30:02;10.97;;;5.20;;
73023;SDS011;72676;47.526;8.538;2024-03-06T06:32:32;9.50;;;4.50;;
73023;SDS011;72676;47.526;8.538;2024-03-06T06:34:59;9.80;;;4.57;;
73023;SDS011;72676;47.526;8.538;2024-03-06T06:37:26;8.33;;;4.30;;
73023;SDS011;72676;47.526;8.538;2024-03-06T06:39:52;10.07;;;4.80;;
73023;SDS011;72676;47.526;8.538;2024-03-06T06:42:19;8.50;;;4.60;;
73023;SDS011;72676;47.526;8.538;2024-03-06T06:44:45;10.90;;;5.47;;
73023;SDS011;72676;47.526;8.538;2024-03-06T06:47:12;9.53;;;5.00;;
73023;SDS011;72676;47.526;8.538;2024-03-06T06:49:38;9.70;;;4.73;;
73023;SDS011;72676;47.526;8.538;2024-03-06T06:52:05;8.57;;;4.33;;
73023;SDS011;72676;47.526;8.538;2024-03-06T06:54:31;8.27;;;4.67;;
73023;SDS011;72676;47.526;8.538;2024-03-06T06:56:58;8.80;;;4.60;;
73023;SDS011;72676;47.526;8.538;2024-03-06T06:59:24;9.33;;;4.67;;
73023;SDS011;72676;47.526;8.538;2024-03-06T07:01:51;10.10;;;4.33;;
73023;SDS011;72676;47.526;8.538;2024-03-06T07:04:18;10.67;;;4.90;;
73023;SDS011;72676;47.526;8.538;2024-03-06T07:06:46;7.80;;;4.63;;
73023;SDS011;72676;47.526;8.538;2024-03-06T07:09:12;10.57;;;5.13;;
73023;SDS011;72676;47.526;8.538;2024-03-06T07:11:41;9.43;;;5.00;;
73023;SDS011;72676;47.526;8.538;2024-03-06T07:14:09;10.10;;;5.17;;
73023;SDS011;72676;47.526;8.538;2024-03-06T07:16:41;9.13;;;4.37;;
73023;SDS011;72676;47.526;8.538;2024-03-06T07:19:08;9.80;;;4.30;;
73023;SDS011;72676;47.526;8.538;2024-03-06T07:21:35;8.80;;;4.07;;
73023;SDS011;72676;47.526;8.538;2024-03-06T07:24:02;10.67;;;3.90;;
73023;SDS011;72676;47.526;8.538;2024-03-06T07:26:28;8.50;;;4.30;;
73023;SDS011;72676;47.526;8.538;2024-03-06T07:28:56;8.90;;;4.30;;
73023;SDS011;72676;47.526;8.538;2024-03-06T07:31:24;10.20;;;4.20;;
73023;SDS011;72676;47.526;8.538;2024-03-06T07:33:51;8.63;;;4.70;;
73023;SDS011;72676;47.526;8.538;2024-03-06T07:36:18;9.03;;;4.13;;
73023;SDS011;72676;47.526;8.538;2024-03-06T07:38:45;8.20;;;4.67;;
73023;SDS011;72676;47.526;8.538;2024-03-06T07:41:12;8.37;;;4.20;;
73023;SDS011;72676;47.526;8.538;2024-03-06T07:43:38;9.43;;;4.67;;
73023;SDS011;72676;47.526;8.538;2024-03-06T07:46:05;9.63;;;4.50;;
73023;SDS011;72676;47.526;8.538;2024-03-06T07:48:36;9.00;;;4.27;;
73023;SDS011;72676;47.526;8.538;2024-03-06T07:51:03;8.10;;;4.20;;
73023;SDS011;72676;47.526;8.538;2024-03-06T07:53:30;10.10;;;4.77;;
73023;SDS011;72676;47.526;8.538;2024-03-06T07:55:57;10.10;;;4.77;;
73023;SDS011;72676;47.526;8.538;2024-03-06T07:58:23;10.57;;;4.43;;
73023;SDS011;72676;47.526;8.538;2024-03-06T08:00:50;8.50;;;4.70;;
73023;SDS011;72676;47.526;8.538;2024-03-06T08:03:19;8.60;;;4.03;;
73023;SDS011;72676;47.526;8.538;2024-03-06T08:05:46;10.17;;;5.30;;
73023;SDS011;72676;47.526;8.538;2024-03-06T08:08:13;7.50;;;4.67;;
73023;SDS011;72676;47.526;8.538;2024-03-06T08:10:40;8.00;;;4.03;;
73023;SDS011;72676;47.526;8.538;2024-03-06T08:13:07;13.93;;;4.50;;
73023;SDS011;72676;47.526;8.538;2024-03-06T08:15:33;8.30;;;4.47;;
73023;SDS011;72676;47.526;8.538;2024-03-06T08:18:00;9.80;;;5.30;;
73023;SDS011;72676;47.526;8.538;2024-03-06T08:20:26;11.50;;;4.87;;
73023;SDS011;72676;47.526;8.538;2024-03-06T08:22:54;11.37;;;5.10;;
73023;SDS011;72676;47.526;8.538;2024-03-06T08:25:22;7.93;;;4.80;;
73023;SDS011;72676;47.526;8.538;2024-03-06T08:27:49;12.37;;;6.13;;
73023;SDS011;72676;47.526;8.538;2024-03-06T08:30:15;14.03;;;5.10;;
73023;SDS011;72676;47.526;8.538;2024-03-06T08:32:42;16.83;;;6.60;;
73023;SDS011;72676;47.526;8.538;2024-03-06T08:35:11;10.83;;;5.10;;
73023;SDS011;72676;47.526;8.538;2024-03-06T08:37:44;10.10;;;5.23;;
73023;SDS011;72676;47.526;8.538;2024-03-06T08:40:10;12.30;;;6.80;;
73023;SDS011;72676;47.526;8.538;2024-03-06T08:42:41;12.00;;;6.60;;
73023;SDS011;72676;47.526;8.538;2024-03-06T08:45:11;8.50;;;5.27;;
73023;SDS011;72676;47.526;8.538;2024-03-06T08:47:37;13.20;;;7.00;;
73023;SDS011;72676;47.526;8.538;2024-03-06T08:50:04;10.20;;;5.63;;
73023;SDS011;72676;47.526;8.538;2024-03-06T08:52:31;16.17;;;5.40;;
73023;SDS011;72676;47.526;8.538;2024-03-06T08:54:58;9.70;;;5.50;;
73023;SDS011;72676;47.526;8.538;2024-03-06T08:57:25;11.67;;;6.50;;
73023;SDS011;72676;47.526;8.538;2024-03-06T08:59:54;11.53;;;5.83;;
73023;SDS011;72676;47.526;8.538;2024-03-06T09:02:21;13.53;;;7.23;;
73023;SDS011;72676;47.526;8.538;2024-03-06T09:04:48;12.60;;;6.70;;
73023;SDS011;72676;47.526;8.538;2024-03-06T09:07:15;13.83;;;6.27;;
73023;SDS011;72676;47.526;8.538;2024-03-06T09:09:41;13.77;;;6.53;;
73023;SDS011;72676;47.526;8.538;2024-03-06T09:12:08;11.17;;;6.87;;
73023;SDS011;72676;47.526;8.538;2024-03-06T09:14:37;12.80;;;6.20;;
73023;SDS011;72676;47.526;8.538;2024-03-06T09:17:04;10.57;;;5.93;;
73023;SDS011;72676;47.526;8.538;2024-03-06T09:19:32;12.87;;;7.23;;
73023;SDS011;72676;47.526;8.538;2024-03-06T09:21:59;11.53;;;6.97;;
73023;SDS011;72676;47.526;8.538;2024-03-06T09:24:25;11.90;;;6.87;;
73023;SDS011;72676;47.526;8.538;2024-03-06T09:26:54;12.70;;;7.60;;
73023;SDS011;72676;47.526;8.538;2024-03-06T09:29:21;12.80;;;7.30;;
73023;SDS011;72676;47.526;8.538;2024-03-06T09:31:48;14.00;;;8.07;;
73023;SDS011;72676;47.526;8.538;2024-03-06T09:34:15;14.70;;;8.10;;
73023;SDS011;72676;47.526;8.538;2024-03-06T09:36:41;14.50;;;7.90;;
73023;SDS011;72676;47.526;8.538;2024-03-06T09:39:12;16.17;;;8.70;;
73023;SDS011;72676;47.526;8.538;2024-03-06T09:41:41;15.90;;;8.63;;
73023;SDS011;72676;47.526;8.538;2024-03-06T09:44:08;17.47;;;9.23;;
73023;SDS011;72676;47.526;8.538;2024-03-06T09:46:34;18.83;;;9.03;;
73023;SDS011;72676;47.526;8.538;2024-03-06T09:49:01;14.43;;;8.53;;
73023;SDS011;72676;47.526;8.538;2024-03-06T09:51:28;17.53;;;9.33;;
73023;SDS011;72676;47.526;8.538;2024-03-06T09:53:56;18.40;;;9.80;;
73023;SDS011;72676;47.526;8.538;2024-03-06T09:56:24;13.33;;;7.43;;
73023;SDS011;72676;47.526;8.538;2024-03-06T09:58:50;19.53;;;8.50;;
73023;SDS011;72676;47.526;8.538;2024-03-06T10:01:20;15.30;;;7.90;;
73023;SDS011;72676;47.526;8.538;2024-03-06T10:03:49;15.83;;;8.03;;
73023;SDS011;72676;47.526;8.538;2024-03-06T10:06:16;15.03;;;8.60;;
73023;SDS011;72676;47.526;8.538;2024-03-06T10:08:43;14.50;;;8.00;;
73023;SDS011;72676;47.526;8.538;2024-03-06T10:11:10;18.10;;;8.73;;
73023;SDS011;72676;47.526;8.538;2024-03-06T10:13:38;17.73;;;9.50;;
73023;SDS011;72676;47.526;8.538;2024-03-06T10:16:04;16.40;;;8.93;;
73023;SDS011;72676;47.526;8.538;2024-03-06T10:18:36;19.10;;;9.53;;
73023;SDS011;72676;47.526;8.538;2024-03-06T10:21:04;16.47;;;9.00;;
73023;SDS011;72676;47.526;8.538;2024-03-06T10:23:32;15.07;;;8.63;;
73023;SDS011;72676;47.526;8.538;2024-03-06T10:25:58;19.90;;;9.80;;
73023;SDS011;72676;47.526;8.538;2024-03-06T10:28:25;17.50;;;9.73;;
73023;SDS011;72676;47.526;8.538;2024-03-06T10:31:02;13.73;;;8.03;;
73023;SDS011;72676;47.526;8.538;2024-03-06T10:33:31;14.13;;;8.03;;
73023;SDS011;72676;47.526;8.538;2024-03-06T10:35:57;11.17;;;6.17;;
73023;SDS011;72676;47.526;8.538;2024-03-06T10:38:28;12.60;;;7.37;;
73023;SDS011;72676;47.526;8.538;2024-03-06T10:41:02;11.00;;;6.53;;
73023;SDS011;72676;47.526;8.538;2024-03-06T10:43:29;12.47;;;7.20;;
73023;SDS011;72676;47.526;8.538;2024-03-06T10:46:01;14.43;;;6.50;;
73023;SDS011;72676;47.526;8.538;2024-03-06T10:48:36;11.53;;;6.40;;
73023;SDS011;72676;47.526;8.538;2024-03-06T10:51:04;17.03;;;6.27;;
73023;SDS011;72676;47.526;8.538;2024-03-06T10:53:33;11.63;;;6.70;;
73023;SDS011;72676;47.526;8.538;2024-03-06T10:56:01;13.63;;;7.03;;
73023;SDS011;72676;47.526;8.538;2024-03-06T10:58:28;15.17;;;7.00;;
73023;SDS011;72676;47.526;8.538;2024-03-06T11:00:56;14.73;;;7.50;;
73023;SDS011;72676;47.526;8.538;2024-03-06T11:03:24;17.40;;;7.80;;
73023;SDS011;72676;47.526;8.538;2024-03-06T11:05:52;19.10;;;8.77;;
73023;SDS011;72676;47.526;8.538;2024-03-06T11:08:18;13.53;;;7.30;;
73023;SDS011;72676;47.526;8.538;2024-03-06T11:10:46;13.70;;;7.67;;
73023;SDS011;72676;47.526;8.538;2024-03-06T11:13:22;18.87;;;8.23;;
73023;SDS011;72676;47.526;8.538;2024-03-06T11:15:51;13.60;;;6.73;;
73023;SDS011;72676;47.526;8.538;2024-03-06T11:21:41;10.33;;;6.00;;
73023;SDS011;72676;47.526;8.538;2024-03-06T11:26:55;17.10;;;7.03;;
73023;SDS011;72676;47.526;8.538;2024-03-06T11:29:32;12.60;;;7.20;;
73023;SDS011;72676;47.526;8.538;2024-03-06T11:32:59;11.53;;;6.03;;
73023;SDS011;72676;47.526;8.538;2024-03-06T11:35:27;9.80;;;6.00;;
73023;SDS011;72676;47.526;8.538;2024-03-06T11:37:54;10.73;;;5.90;;
73023;SDS011;72676;47.526;8.538;2024-03-06T11:40:24;10.87;;;6.40;;
73023;SDS011;72676;47.526;8.538;2024-03-06T11:42:51;10.77;;;5.53;;
73023;SDS011;72676;47.526;8.538;2024-03-06T11:45:18;10.63;;;5.50;;
73023;SDS011;72676;47.526;8.538;2024-03-06T11:47:55;9.57;;;5.50;;
73023;SDS011;72676;47.526;8.538;2024-03-06T11:50:29;11.70;;;6.10;;
73023;SDS011;72676;47.526;8.538;2024-03-06T11:52:59;12.30;;;6.33;;
73023;SDS011;72676;47.526;8.538;2024-03-06T11:55:25;10.30;;;5.97;;
73023;SDS011;72676;47.526;8.538;2024-03-06T11:57:52;10.97;;;6.23;;
73023;SDS011;72676;47.526;8.538;2024-03-06T12:00:22;11.50;;;6.23;;
73023;SDS011;72676;47.526;8.538;2024-03-06T12:02:52;14.03;;;6.67;;
73023;SDS011;72676;47.526;8.538;2024-03-06T12:05:19;11.00;;;5.70;;
73023;SDS011;72676;47.526;8.538;2024-03-06T12:07:46;11.73;;;5.60;;
73023;SDS011;72676;47.526;8.538;2024-03-06T12:10:13;10.83;;;5.57;;
73023;SDS011;72676;47.526;8.538;2024-03-06T12:12:43;12.07;;;6.10;;
73023;SDS011;72676;47.526;8.538;2024-03-06T12:15:11;9.53;;;5.20;;
73023;SDS011;72676;47.526;8.538;2024-03-06T12:17:45;8.87;;;5.43;;
73023;SDS011;72676;47.526;8.538;2024-03-06T12:20:15;9.17;;;5.23;;
73023;SDS011;72676;47.526;8.538;2024-03-06T12:22:43;10.93;;;5.37;;
73023;SDS011;72676;47.526;8.538;2024-03-06T12:27:46;8.77;;;5.00;;
73023;SDS011;72676;47.526;8.538;2024-03-06T12:30:20;8.67;;;4.87;;
73023;SDS011;72676;47.526;8.538;2024-03-06T12:32:58;8.40;;;4.90;;
73023;SDS011;72676;47.526;8.538;2024-03-06T12:35:26;11.63;;;5.67;;
73023;SDS011;72676;47.526;8.538;2024-03-06T12:37:53;11.37;;;6.13;;
73023;SDS011;72676;47.526;8.538;2024-03-06T12:40:20;9.27;;;5.50;;
73023;SDS011;72676;47.526;8.538;2024-03-06T12:42:47;10.57;;;5.33;;
73023;SDS011;72676;47.526;8.538;2024-03-06T12:45:15;12.50;;;6.17;;
73023;SDS011;72676;47.526;8.538;2024-03-06T12:47:42;11.57;;;6.23;;
73023;SDS011;72676;47.526;8.538;2024-03-06T12:50:10;9.53;;;5.17;;
73023;SDS011;72676;47.526;8.538;2024-03-06T12:52:37;8.40;;;4.47;;
73023;SDS011;72676;47.526;8.538;2024-03-06T12:55:04;8.93;;;5.20;;
73023;SDS011;72676;47.526;8.538;2024-03-06T12:57:34;9.93;;;5.40;;
73023;SDS011;72676;47.526;8.538;2024-03-06T13:00:00;14.27;;;6.10;;
73023;SDS011;72676;47.526;8.538;2024-03-06T13:02:27;9.70;;;5.43;;
73023;SDS011;72676;47.526;8.538;2024-03-06T13:04:53;10.77;;;5.47;;
73023;SDS011;72676;47.526;8.538;2024-03-06T13:07:20;9.00;;;5.23;;
73023;SDS011;72676;47.526;8.538;2024-03-06T13:09:46;10.50;;;5.30;;
73023;SDS011;72676;47.526;8.538;2024-03-06T13:12:13;11.67;;;5.97;;
73023;SDS011;72676;47.526;8.538;2024-03-06T13:14:39;10.60;;;5.50;;
73023;SDS011;72676;47.526;8.538;2024-03-06T13:17:06;10.37;;;5.10;;
73023;SDS011;72676;47.526;8.538;2024-03-06T13:19:34;10.70;;;5.50;;
73023;SDS011;72676;47.526;8.538;2024-03-06T13:22:00;12.50;;;6.57;;
73023;SDS011;72676;47.526;8.538;2024-03-06T13:24:31;17.20;;;5.57;;
73023;SDS011;72676;47.526;8.538;2024-03-06T13:26:57;10.53;;;6.00;;
73023;SDS011;72676;47.526;8.538;2024-03-06T13:29:24;12.20;;;6.20;;
73023;SDS011;72676;47.526;8.538;2024-03-06T13:31:50;13.33;;;6.47;;
73023;SDS011;72676;47.526;8.538;2024-03-06T13:34:18;10.37;;;5.60;;
73023;SDS011;72676;47.526;8.538;2024-03-06T13:36:44;10.80;;;5.70;;
73023;SDS011;72676;47.526;8.538;2024-03-06T13:39:11;13.97;;;5.40;;
73023;SDS011;72676;47.526;8.538;2024-03-06T13:41:37;9.90;;;5.30;;
73023;SDS011;72676;47.526;8.538;2024-03-06T13:44:04;11.23;;;5.03;;
73023;SDS011;72676;47.526;8.538;2024-03-06T13:46:31;12.20;;;5.70;;
73023;SDS011;72676;47.526;8.538;2024-03-06T13:48:57;12.90;;;4.33;;
73023;SDS011;72676;47.526;8.538;2024-03-06T13:51:24;8.30;;;4.93;;
73023;SDS011;72676;47.526;8.538;2024-03-06T13:53:50;9.67;;;5.10;;
73023;SDS011;72676;47.526;8.538;2024-03-06T13:56:17;10.40;;;5.67;;
73023;SDS011;72676;47.526;8.538;2024-03-06T13:58:44;16.53;;;5.97;;
73023;SDS011;72676;47.526;8.538;2024-03-06T14:01:11;9.83;;;5.70;;
73023;SDS011;72676;47.526;8.538;2024-03-06T14:03:37;13.43;;;5.77;;
73023;SDS011;72676;47.526;8.538;2024-03-06T14:06:05;11.90;;;5.50;;
73023;SDS011;72676;47.526;8.538;2024-03-06T14:08:33;8.83;;;5.17;;
73023;SDS011;72676;47.526;8.538;2024-03-06T14:10:59;10.13;;;5.10;;
73023;SDS011;72676;47.526;8.538;2024-03-06T14:13:26;9.60;;;5.50;;
73023;SDS011;72676;47.526;8.538;2024-03-06T14:15:53;10.17;;;4.50;;
73023;SDS011;72676;47.526;8.538;2024-03-06T14:18:19;9.57;;;4.50;;
73023;SDS011;72676;47.526;8.538;2024-03-06T14:20:46;12.87;;;5.63;;
73023;SDS011;72676;47.526;8.538;2024-03-06T14:23:12;9.07;;;5.40;;
73023;SDS011;72676;47.526;8.538;2024-03-06T14:25:39;12.30;;;5.57;;
73023;SDS011;72676;47.526;8.538;2024-03-06T14:28:05;10.10;;;5.60;;
73023;SDS011;72676;47.526;8.538;2024-03-06T14:30:31;9.63;;;5.43;;
73023;SDS011;72676;47.526;8.538;2024-03-06T14:32:58;11.60;;;5.13;;
73023;SDS011;72676;47.526;8.538;2024-03-06T14:35:25;10.10;;;5.47;;
73023;SDS011;72676;47.526;8.538;2024-03-06T14:37:52;9.43;;;5.20;;
73023;SDS011;72676;47.526;8.538;2024-03-06T14:40:18;10.77;;;5.33;;
73023;SDS011;72676;47.526;8.538;2024-03-06T14:42:45;9.73;;;5.30;;
73023;SDS011;72676;47.526;8.538;2024-03-06T14:45:12;9.73;;;5.43;;
73023;SDS011;72676;47.526;8.538;2024-03-06T14:47:38;10.77;;;5.30;;
73023;SDS011;72676;47.526;8.538;2024-03-06T14:50:05;8.17;;;4.37;;
73023;SDS011;72676;47.526;8.538;2024-03-06T14:52:32;8.50;;;4.70;;
73023;SDS011;72676;47.526;8.538;2024-03-06T14:54:58;13.93;;;4.97;;
73023;SDS011;72676;47.526;8.538;2024-03-06T14:57:24;7.93;;;4.60;;
73023;SDS011;72676;47.526;8.538;2024-03-06T14:59:51;11.77;;;4.50;;
73023;SDS011;72676;47.526;8.538;2024-03-06T15:02:20;9.20;;;4.60;;